Time,TemperatureF,DewpointF,PressureIn,WindDirection,WindDirectionDegrees,WindSpeedMPH,WindSpeedGustMPH,Humidity,HourlyPrecipIn,Conditions,Clouds,dailyrainin,SoftwareType,DateUTC
2013-01-10 00:02:00,29.0,-2.0,-100.00,ESE,117,3.0,5.0,26,0.00,,,0.00,,2013-01-10 07:02:00,
2013-01-10 00:12:00,29.0,-2.0,-100.00,ESE,117,3.0,5.0,26,0.00,,,0.00,,2013-01-10 07:12:00,
2013-01-10 00:22:00,29.0,-2.0,-100.00,ESE,117,3.0,5.0,26,0.00,,,0.00,,2013-01-10 07:22:00,
2013-01-10 00:52:00,32.0,-6.0,-100.00,SSE,166,6.0,10.0,19,0.00,,,0.00,,2013-01-10 07:52:00,
2013-01-10 01:02:00,32.0,-6.0,-100.00,SSE,166,6.0,10.0,19,0.00,,,0.00,,2013-01-10 08:02:00,
2013-01-10 01:12:00,32.0,-6.0,-100.00,SSE,166,6.0,10.0,19,0.00,,,0.00,,2013-01-10 08:12:00,
2013-01-10 01:22:00,32.0,-6.0,-100.00,SSE,166,6.0,10.0,19,0.00,,,0.00,,2013-01-10 08:22:00,
2013-01-10 01:53:00,32.0,-8.0,-100.00,SSW,212,3.0,10.0,17,0.00,,,0.00,,2013-01-10 08:53:00,
2013-01-10 02:02:00,32.0,-8.0,-100.00,SSW,212,3.0,10.0,17,0.00,,,0.00,,2013-01-10 09:02:00,
2013-01-10 02:12:00,32.0,-8.0,-100.00,SSW,212,3.0,10.0,17,0.00,,,0.00,,2013-01-10 09:12:00,
2013-01-10 02:22:00,32.0,-8.0,-100.00,SSW,212,3.0,10.0,17,0.00,,,0.00,,2013-01-10 09:22:00,
2013-01-10 02:52:00,33.0,-7.0,-100.00,South,175,9.0,12.0,17,0.00,,,-99.99,,2013-01-10 09:52:00,
2013-01-10 03:03:00,33.0,-7.0,-100.00,South,175,9.0,12.0,17,0.00,,,-99.99,,2013-01-10 10:03:00,
2013-01-10 03:12:00,33.0,-7.0,-100.00,South,175,9.0,12.0,17,0.00,,,-99.99,,2013-01-10 10:12:00,
2013-01-10 03:22:00,33.0,-7.0,-100.00,South,175,9.0,12.0,17,0.00,,,-99.99,,2013-01-10 10:22:00,
2013-01-10 03:53:00,33.0,-10.0,-100.00,South,176,9.0,17.0,15,0.00,,,0.00,,2013-01-10 10:53:00,
2013-01-10 04:02:00,33.0,-10.0,-100.00,South,176,9.0,17.0,15,0.00,,,0.00,,2013-01-10 11:02:00,
2013-01-10 04:12:00,33.0,-10.0,-100.00,South,176,9.0,17.0,15,0.00,,,0.00,,2013-01-10 11:12:00,
2013-01-10 04:22:00,33.0,-10.0,-100.00,South,176,9.0,17.0,15,0.00,,,0.00,,2013-01-10 11:22:00,
2013-01-10 04:53:00,32.0,-10.0,-100.00,South,177,9.0,16.0,15,0.00,,,0.00,,2013-01-10 11:53:00,
2013-01-10 05:03:00,32.0,-10.0,-100.00,South,177,9.0,16.0,15,0.00,,,0.00,,2013-01-10 12:03:00,
2013-01-10 05:12:00,32.0,-10.0,-100.00,South,177,9.0,16.0,15,0.00,,,0.00,,2013-01-10 12:12:00,
2013-01-10 05:22:00,32.0,-10.0,-100.00,South,177,9.0,16.0,15,0.00,,,0.00,,2013-01-10 12:22:00,
2013-01-10 07:53:00,33.0,-12.0,-100.00,South,180,9.0,18.0,13,-99.99,,,0.00,,2013-01-10 14:53:00,
2013-01-10 08:03:00,33.0,-12.0,-100.00,South,180,9.0,18.0,13,-99.99,,,0.00,,2013-01-10 15:03:00,
2013-01-10 08:12:00,33.0,-12.0,-100.00,South,180,9.0,18.0,13,-99.99,,,0.00,,2013-01-10 15:12:00,
2013-01-10 08:22:00,33.0,-12.0,-100.00,South,180,9.0,18.0,13,-99.99,,,0.00,,2013-01-10 15:22:00,
2013-01-10 08:53:00,34.0,-13.0,-100.00,South,178,10.0,16.0,12,0.00,,,0.00,,2013-01-10 15:53:00,
2013-01-10 09:03:00,34.0,-13.0,-100.00,South,178,10.0,16.0,12,0.00,,,0.00,,2013-01-10 16:03:00,
2013-01-10 09:13:00,34.0,-13.0,-100.00,South,178,10.0,16.0,12,0.00,,,0.00,,2013-01-10 16:13:00,
2013-01-10 09:23:00,34.0,-13.0,-100.00,South,178,10.0,16.0,12,0.00,,,0.00,,2013-01-10 16:23:00,
2013-01-10 09:53:00,27.0,-5.0,-100.00,WSW,256,3.0,11.0,24,0.00,,,0.00,,2013-01-10 16:53:00,
2013-01-10 10:03:00,27.0,-5.0,-100.00,WSW,256,3.0,11.0,24,0.00,,,0.00,,2013-01-10 17:03:00,
2013-01-10 10:12:00,27.0,-5.0,-100.00,WSW,256,3.0,11.0,24,0.00,,,0.00,,2013-01-10 17:12:00,
2013-01-10 10:22:00,27.0,-5.0,-100.00,WSW,256,3.0,11.0,24,0.00,,,0.00,,2013-01-10 17:22:00,
2013-01-10 10:53:00,32.0,-4.0,-100.00,NE,36,3.0,6.0,20,0.00,,,0.00,,2013-01-10 17:53:00,
2013-01-10 11:03:00,32.0,-4.0,-100.00,NE,36,3.0,6.0,20,0.00,,,0.00,,2013-01-10 18:03:00,
2013-01-10 11:12:00,32.0,-4.0,-100.00,NE,36,3.0,6.0,20,0.00,,,0.00,,2013-01-10 18:12:00,
2013-01-10 11:23:00,32.0,-4.0,-100.00,NE,36,3.0,6.0,20,0.00,,,0.00,,2013-01-10 18:23:00,
2013-01-10 11:53:00,34.0,-2.0,-100.00,North,0,3.0,7.0,21,0.00,,,0.00,,2013-01-10 18:53:00,
2013-01-10 12:03:00,34.0,-2.0,-100.00,North,0,3.0,7.0,21,0.00,,,0.00,,2013-01-10 19:03:00,
2013-01-10 12:13:00,34.0,-2.0,-100.00,North,0,3.0,7.0,21,0.00,,,0.00,,2013-01-10 19:13:00,
2013-01-10 12:23:00,34.0,-2.0,-100.00,North,0,3.0,7.0,21,0.00,,,0.00,,2013-01-10 19:23:00,
2013-01-10 12:53:00,37.0,0.0,-100.00,East,96,1.0,7.0,20,0.00,,,0.00,,2013-01-10 19:53:00,
2013-01-10 13:03:00,37.0,0.0,-100.00,East,96,1.0,7.0,20,0.00,,,0.00,,2013-01-10 20:03:00,
2013-01-10 13:13:00,37.0,0.0,-100.00,East,96,1.0,7.0,20,0.00,,,0.00,,2013-01-10 20:13:00,
2013-01-10 13:24:00,37.0,0.0,-100.00,East,96,1.0,7.0,20,0.00,,,0.00,,2013-01-10 20:24:00,
2013-01-10 13:53:00,37.0,-3.0,-100.00,WSW,254,9.0,16.0,18,0.00,,,0.00,,2013-01-10 20:53:00,
2013-01-10 14:03:00,37.0,-3.0,-100.00,WSW,254,9.0,16.0,18,0.00,,,0.00,,2013-01-10 21:03:00,
2013-01-10 14:12:00,37.0,-3.0,-100.00,WSW,254,9.0,16.0,18,0.00,,,0.00,,2013-01-10 21:12:00,
2013-01-10 14:23:00,37.0,-3.0,-100.00,WSW,254,9.0,16.0,18,0.00,,,0.00,,2013-01-10 21:23:00,
2013-01-10 14:53:00,35.0,-1.0,-100.00,West,263,10.0,23.0,21,0.00,,,0.00,,2013-01-10 21:53:00,
2013-01-10 15:03:00,35.0,-1.0,-100.00,West,263,10.0,23.0,21,0.00,,,0.00,,2013-01-10 22:03:00,
2013-01-10 15:12:00,35.0,-1.0,-100.00,West,263,10.0,23.0,21,0.00,,,0.00,,2013-01-10 22:12:00,
2013-01-10 15:26:00,35.0,-1.0,-100.00,West,263,10.0,23.0,21,0.00,,,0.00,,2013-01-10 22:26:00,
2013-01-10 16:03:00,36.0,-3.0,-100.00,WSW,255,5.0,13.0,18,0.00,,,0.00,,2013-01-10 23:03:00,
2013-01-10 16:12:00,36.0,-3.0,-100.00,WSW,255,5.0,13.0,18,0.00,,,0.00,,2013-01-10 23:12:00,
2013-01-10 16:23:00,36.0,-3.0,-100.00,WSW,255,5.0,13.0,18,0.00,,,0.00,,2013-01-10 23:23:00,
2013-01-10 16:53:00,29.0,-3.0,-100.00,WNW,289,8.0,12.0,24,0.00,,,0.00,,2013-01-10 23:53:00,
2013-01-10 17:03:00,29.0,-3.0,-100.00,WNW,289,8.0,12.0,24,0.00,,,0.00,,2013-01-11 00:03:00,
2013-01-10 17:12:00,29.0,-3.0,-100.00,WNW,289,8.0,12.0,24,0.00,,,0.00,,2013-01-11 00:12:00,
2013-01-10 17:23:00,29.0,-3.0,-100.00,WNW,289,8.0,12.0,24,0.00,,,0.00,,2013-01-11 00:23:00,
2013-01-10 17:53:00,27.0,-3.0,-100.00,ESE,111,4.0,8.0,26,0.00,,,0.00,,2013-01-11 00:53:00,
2013-01-10 18:03:00,27.0,-3.0,-100.00,ESE,111,4.0,8.0,26,0.00,,,0.00,,2013-01-11 01:03:00,
2013-01-10 18:13:00,27.0,-3.0,-100.00,ESE,111,4.0,8.0,26,0.00,,,0.00,,2013-01-11 01:13:00,
2013-01-10 18:53:00,25.0,-3.0,-100.00,NE,44,4.0,8.0,29,0.00,,,0.00,,2013-01-11 01:53:00,
2013-01-10 19:03:00,25.0,-3.0,-100.00,NE,44,4.0,8.0,29,0.00,,,0.00,,2013-01-11 02:03:00,
2013-01-10 19:13:00,25.0,-3.0,-100.00,NE,44,4.0,8.0,29,0.00,,,0.00,,2013-01-11 02:13:00,
2013-01-10 19:23:00,25.0,-3.0,-100.00,NE,44,4.0,8.0,29,0.00,,,0.00,,2013-01-11 02:23:00,
2013-01-10 19:54:00,24.0,0.0,-100.00,ESE,111,5.0,7.0,34,0.00,,,0.00,,2013-01-11 02:54:00,
2013-01-10 20:02:00,24.0,0.0,-100.00,ESE,111,5.0,7.0,34,0.00,,,0.00,,2013-01-11 03:02:00,
2013-01-10 20:12:00,24.0,0.0,-100.00,ESE,111,5.0,7.0,34,0.00,,,0.00,,2013-01-11 03:12:00,
2013-01-10 20:23:00,24.0,0.0,-100.00,ESE,111,5.0,7.0,34,0.00,,,0.00,,2013-01-11 03:23:00,
2013-01-10 20:53:00,28.0,5.0,-100.00,SSW,203,11.0,19.0,36,0.00,,,0.00,,2013-01-11 03:53:00,
2013-01-10 21:02:00,28.0,5.0,-100.00,SSW,203,11.0,19.0,36,0.00,,,0.00,,2013-01-11 04:02:00,
2013-01-10 21:12:00,28.0,5.0,-100.00,SSW,203,11.0,19.0,36,0.00,,,0.00,,2013-01-11 04:12:00,
2013-01-10 21:22:00,28.0,5.0,-100.00,SSW,203,11.0,19.0,36,0.00,,,0.00,,2013-01-11 04:22:00,
2013-01-10 21:53:00,26.0,5.0,-100.00,SW,216,9.0,19.0,40,0.00,,,0.00,,2013-01-11 04:53:00,
2013-01-10 22:03:00,26.0,5.0,-100.00,SW,216,9.0,19.0,40,0.00,,,0.00,,2013-01-11 05:03:00,
2013-01-10 22:13:00,26.0,5.0,-100.00,SW,216,9.0,19.0,40,0.00,,,0.00,,2013-01-11 05:13:00,
2013-01-10 22:22:00,26.0,5.0,-100.00,SW,216,9.0,19.0,40,0.00,,,0.00,,2013-01-11 05:22:00,
2013-01-10 22:53:00,27.0,2.0,-100.00,SSW,208,12.0,28.0,33,0.00,,,0.00,,2013-01-11 05:53:00,
2013-01-10 23:03:00,27.0,2.0,-100.00,SSW,208,12.0,28.0,33,0.00,,,0.00,,2013-01-11 06:03:00,
2013-01-10 23:12:00,27.0,2.0,-100.00,SSW,208,12.0,28.0,33,0.00,,,0.00,,2013-01-11 06:12:00,
2013-01-10 23:22:00,27.0,2.0,-100.00,SSW,208,12.0,28.0,33,0.00,,,0.00,,2013-01-11 06:22:00,
2013-01-10 23:52:00,22.0,3.0,-100.00,SSW,206,6.0,22.0,43,0.00,,,0.00,,2013-01-11 06:52:00,